Time;durP1;ratioP1;P1;durP2;ratioP2;P2;SDS_P1;SDS_P2;PMS_P1;PMS_P2;Temp;Humidity;BMP_temperature;BMP_pressure;BME280_temperature;BME280_humidity;BME280_pressure;Samples;Min_cycle;Max_cycle;Signal;HPM_P1;HPM_P2
2022/12/30 00:01:54;;;;;;;8.77;4.60;;;;;;;-1.59;89.75;101886.81;10419252;28;20045;-79
2022/12/30 00:06:54;;;;;;;9.38;4.60;;;;;;;-1.49;89.80;101909.06;10423430;28;20033;-78
2022/12/30 00:33:05;;;;;;;8.32;4.43;;;;;;;-2.78;89.34;101699.00;10452460;28;20103;-79
2022/12/30 00:33:27;;;;;;;7.38;4.22;;;;;;;-1.91;89.14;101828.84;10458616;28;20413;-79
2022/12/30 00:38:28;;;;;;;7.25;4.40;;;;;;;-1.69;89.26;101855.00;10458322;28;20037;-79
2022/12/30 00:43:28;;;;;;;10.40;4.93;;;;;;;-1.57;89.41;101858.97;10458241;28;20072;-79
2022/12/30 00:59:09;;;;;;;12.65;5.22;;;;;;;-1.41;88.33;101867.09;10457704;28;20504;-79
2022/12/30 01:04:09;;;;;;;8.80;4.70;;;;;;;-1.28;88.29;101891.84;10442871;28;20412;-79
2022/12/30 01:09:10;;;;;;;11.02;5.00;;;;;;;-1.27;87.86;101884.88;10442765;28;20053;-79
2022/12/30 01:14:11;;;;;;;14.38;5.75;;;;;;;-1.34;88.04;101871.19;10415614;28;20136;-78
2022/12/30 01:19:11;;;;;;;13.10;4.90;;;;;;;-1.56;88.13;101829.38;10428751;28;20544;-79
2022/12/30 01:24:12;;;;;;;11.63;5.47;;;;;;;-1.46;87.99;101872.47;10456816;28;20132;-78
2022/12/30 01:29:36;;;;;;;12.10;5.40;;;;;;;-1.32;88.74;101897.19;10456219;28;20068;-79
2022/12/30 01:34:37;;;;;;;14.23;5.40;;;;;;;-1.49;88.82;101893.44;10455190;28;20045;-79
2022/12/30 01:39:38;;;;;;;9.43;4.95;;;;;;;-1.48;88.52;101900.34;10445523;28;20095;-79
2022/12/30 01:44:51;;;;;;;11.75;5.43;;;;;;;-1.56;88.89;101893.69;10426293;28;20071;-78
2022/12/30 01:49:59;;;;;;;9.80;4.95;;;;;;;-1.87;88.62;101868.66;10455315;28;20078;-79
2022/12/30 01:55:04;;;;;;;11.25;4.80;;;;;;;-1.69;88.89;101911.50;10433328;28;20052;-79
2022/12/30 02:00:07;;;;;;;9.77;5.20;;;;;;;-2.27;88.70;101827.44;10414144;28;20055;-79
2022/12/30 02:05:10;;;;;;;8.77;4.53;;;;;;;-1.90;88.32;101908.69;10414010;28;20045;-79
2022/12/30 02:10:12;;;;;;;10.55;5.38;;;;;;;-1.86;88.98;101907.66;10445861;28;20047;-78
2022/12/30 02:15:14;;;;;;;9.40;5.28;;;;;;;-1.88;88.67;101914.69;10454644;28;20485;-78
2022/12/30 02:20:52;;;;;;;9.65;4.90;;;;;;;-1.86;88.71;101917.25;10454566;28;20075;-78
2022/12/30 02:25:58;;;;;;;10.77;5.60;;;;;;;-1.92;89.19;101923.50;10454464;28;20044;-79
2022/12/30 02:31:14;;;;;;;12.40;5.18;;;;;;;-2.50;88.44;101828.19;10453082;28;20068;-79
2022/12/30 02:36:26;;;;;;;10.32;5.35;;;;;;;-2.61;88.55;101849.31;10453543;28;20488;-78
2022/12/30 02:47:29;;;;;;;17.48;6.60;;;;;;;-2.23;88.89;101947.06;10424535;28;20083;-79
2022/12/30 02:52:30;;;;;;;12.00;6.28;;;;;;;-2.41;89.42;101922.44;10461768;28;20134;-79
2022/12/30 02:57:33;;;;;;;9.57;5.88;;;;;;;-2.32;88.82;101955.13;10463120;28;20094;-79
2022/12/30 03:08:30;;;;;;;9.63;5.43;;;;;;;-2.55;89.00;101948.00;10461938;28;20084;-79
2022/12/30 03:13:49;;;;;;;24.98;6.78;;;;;;;-2.63;89.61;101945.63;10449633;28;20054;-79
2022/12/30 03:18:51;;;;;;;17.48;6.65;;;;;;;-3.03;89.47;101876.53;10456123;28;20041;-79
2022/12/30 03:29:20;;;;;;;17.48;6.55;;;;;;;-2.78;89.72;101964.28;10450292;28;20068;-78
2022/12/30 03:34:24;;;;;;;17.98;6.18;;;;;;;-2.87;89.60;101954.09;10441259;28;20049;-77
2022/12/30 03:39:30;;;;;;;25.50;6.13;;;;;;;-2.76;89.83;101976.31;10460381;28;20041;-78
2022/12/30 03:44:32;;;;;;;15.52;5.57;;;;;;;-2.76;90.06;101973.72;10458718;28;20037;-77
2022/12/30 03:49:32;;;;;;;22.80;6.45;;;;;;;-2.87;90.06;101980.13;10431916;28;20049;-79
2022/12/30 03:54:33;;;;;;;22.73;6.35;;;;;;;-2.97;89.79;101974.31;10417568;28;20496;-73
2022/12/30 03:59:34;;;;;;;13.00;6.55;;;;;;;-2.99;90.11;101970.94;10419689;28;20119;-72
2022/12/30 04:04:35;;;;;;;12.07;6.80;;;;;;;-3.08;89.65;101968.53;10418060;28;20534;-74
2022/12/30 04:09:36;;;;;;;12.95;6.45;;;;;;;-3.28;90.07;101936.16;10418275;28;20419;-76
2022/12/30 04:14:37;;;;;;;16.20;5.97;;;;;;;-3.52;89.91;101927.25;10418287;28;20041;-77
2022/12/30 04:19:37;;;;;;;11.82;6.47;;;;;;;-3.29;90.11;101980.34;10418596;28;20041;-75
2022/12/30 04:24:38;;;;;;;18.38;8.07;;;;;;;-3.37;90.50;101980.56;10416847;28;20072;-75
2022/12/30 04:29:39;;;;;;;19.38;8.20;;;;;;;-3.41;91.31;101954.69;10416904;28;20485;-74
2022/12/30 04:34:40;;;;;;;15.60;8.10;;;;;;;-3.73;90.69;101914.81;10416976;28;20126;-78
2022/12/30 04:39:41;;;;;;;16.88;7.82;;;;;;;-3.48;90.37;101974.78;10418508;28;20038;-74
2022/12/30 04:44:41;;;;;;;19.92;8.25;;;;;;;-3.74;90.54;101934.72;10416311;28;20040;-73
2022/12/30 04:49:42;;;;;;;14.23;6.93;;;;;;;-3.70;91.03;101925.13;10405520;28;20558;-71
2022/12/30 04:54:43;;;;;;;14.10;7.57;;;;;;;-3.30;91.13;101971.72;10422443;28;20045;-76
2022/12/30 04:59:44;;;;;;;16.40;6.70;;;;;;;-3.94;90.72;101838.28;10419242;28;20049;-76
2022/12/30 05:04:45;;;;;;;18.10;8.40;;;;;;;-3.37;90.47;101933.78;10413908;28;20042;-76
2022/12/30 05:09:46;;;;;;;31.23;16.38;;;;;;;-3.01;90.70;101983.94;10415301;28;20412;-76
2022/12/30 05:14:46;;;;;;;31.38;13.77;;;;;;;-3.00;90.31;101979.59;10415942;28;20072;-76
2022/12/30 05:19:48;;;;;;;19.63;10.25;;;;;;;-3.02;90.21;101970.97;10415951;28;20041;-76
2022/12/30 05:30:08;;;;;;;17.33;9.43;;;;;;;-2.86;90.37;101977.47;10415264;28;20045;-76
2022/12/30 05:35:09;;;;;;;21.65;8.68;;;;;;;-2.72;89.96;101968.44;10413279;28;20037;-76
2022/12/30 05:40:11;;;;;;;15.25;7.32;;;;;;;-2.43;90.27;101955.44;10414844;28;20041;-76
2022/12/30 05:45:12;;;;;;;16.45;7.07;;;;;;;-1.77;89.43;101995.09;10414305;28;20037;-76
2022/12/30 05:50:12;;;;;;;15.50;8.40;;;;;;;-1.95;89.17;101912.34;10415066;28;20100;-76
2022/12/30 05:55:13;;;;;;;15.88;8.35;;;;;;;-1.38;89.00;101950.41;10414914;28;20060;-76
2022/12/30 06:00:16;;;;;;;14.30;7.93;;;;;;;-0.88;87.30;101992.13;10413565;28;20054;-77
2022/12/30 06:05:17;;;;;;;23.83;8.88;;;;;;;-0.77;87.40;101981.34;10414124;28;20729;-77
2022/12/30 06:10:17;;;;;;;16.75;8.25;;;;;;;-1.11;86.08;101916.44;10413813;28;20485;-77
2022/12/30 06:15:18;;;;;;;15.43;7.85;;;;;;;-0.66;86.44;102001.81;10413702;28;20083;-77
2022/12/30 06:20:19;;;;;;;14.52;7.78;;;;;;;-1.13;86.82;101920.88;10414552;28;20095;-76
2022/12/30 06:25:20;;;;;;;18.77;8.10;;;;;;;-0.90;86.95;101930.47;10413448;28;20038;-76
2022/12/30 06:30:21;;;;;;;13.65;8.23;;;;;;;-0.34;86.18;101969.31;10413537;28;20084;-76
2022/12/30 06:35:22;;;;;;;18.05;7.78;;;;;;;-0.10;85.75;101994.47;10413340;28;20048;-76
2022/12/30 06:40:23;;;;;;;15.20;7.85;;;;;;;-0.42;85.63;101917.34;10412450;28;20041;-76
2022/12/30 06:45:24;;;;;;;12.27;7.28;;;;;;;0.25;85.57;101992.25;10413066;28;20046;-76
2022/12/30 06:50:25;;;;;;;15.63;7.70;;;;;;;0.09;84.96;101917.97;10413187;28;20054;-76
2022/12/30 06:55:25;;;;;;;13.70;7.68;;;;;;;0.32;83.93;101925.75;10412646;28;20049;-76
2022/12/30 07:00:27;;;;;;;13.35;7.43;;;;;;;0.07;83.19;101824.00;10412715;28;20038;-76
2022/12/30 07:05:28;;;;;;;12.13;7.13;;;;;;;1.26;83.13;101977.53;10413216;28;20397;-76
2022/12/30 07:10:29;;;;;;;18.48;8.27;;;;;;;1.71;82.27;101984.25;10413177;28;20041;-77
2022/12/30 07:15:30;;;;;;;15.05;7.82;;;;;;;1.94;81.97;101990.16;10412799;28;20038;-77
2022/12/30 07:20:30;;;;;;;15.57;7.57;;;;;;;2.13;81.23;101998.88;10412014;28;20037;-78
2022/12/30 07:25:32;;;;;;;12.18;6.72;;;;;;;2.05;80.74;101959.91;10412355;28;20104;-77
2022/12/30 07:30:33;;;;;;;12.00;7.40;;;;;;;2.26;80.39;101959.81;10416152;28;20069;-77
2022/12/30 07:35:33;;;;;;;15.57;7.22;;;;;;;2.60;79.75;101994.84;10419273;28;20076;-78
2022/12/30 07:40:36;;;;;;;13.45;7.13;;;;;;;2.73;79.71;101973.19;10420035;28;20495;-78
2022/12/30 07:45:37;;;;;;;12.15;6.07;;;;;;;2.94;78.67;101949.41;10418969;28;20087;-78
2022/12/30 07:50:39;;;;;;;12.65;6.57;;;;;;;3.29;78.07;101944.06;10419688;28;20104;-77
2022/12/30 07:55:40;;;;;;;10.88;6.10;;;;;;;3.10;77.46;101861.00;10418304;28;20045;-78
2022/12/30 08:00:41;;;;;;;9.98;5.75;;;;;;;3.75;76.77;101949.47;10419732;28;20128;-78
2022/12/30 08:05:42;;;;;;;10.57;5.45;;;;;;;3.64;75.37;101898.31;10418707;28;20270;-79
2022/12/30 08:10:56;;;;;;;9.90;5.68;;;;;;;4.04;71.26;101935.56;10418595;28;20076;-77
2022/12/30 08:15:57;;;;;;;10.98;5.88;;;;;;;3.64;73.23;101843.13;10417792;28;20042;-77
2022/12/30 08:21:00;;;;;;;10.68;5.18;;;;;;;3.78;72.85;101841.53;10418134;28;20037;-77
2022/12/30 08:26:10;;;;;;;13.05;5.63;;;;;;;4.41;69.78;101915.00;10417622;28;20041;-76
2022/12/30 08:31:14;;;;;;;8.32;4.93;;;;;;;4.66;70.60;101908.28;10418773;28;20095;-77
2022/12/30 08:36:18;;;;;;;10.32;5.05;;;;;;;4.75;71.13;101902.47;10418045;28;20037;-77
2022/12/30 08:41:25;;;;;;;12.82;5.35;;;;;;;4.14;68.22;101806.16;10416192;28;20038;-77
2022/12/30 08:46:28;;;;;;;9.05;5.05;;;;;;;4.64;70.05;101876.81;10417260;28;20037;-77
2022/12/30 08:51:29;;;;;;;9.15;5.50;;;;;;;4.57;69.48;101846.53;10417314;28;20061;-77
2022/12/30 08:56:32;;;;;;;11.85;4.82;;;;;;;4.44;69.87;101764.00;10416450;28;20573;-77
2022/12/30 09:01:40;;;;;;;14.38;4.60;;;;;;;4.36;68.56;101719.72;10417426;28;20056;-77
2022/12/30 09:06:41;;;;;;;9.25;5.40;;;;;;;5.14;68.05;101820.16;10416376;28;20152;-77
2022/12/30 09:11:43;;;;;;;16.55;5.32;;;;;;;5.64;68.16;101867.97;10415463;28;20527;-77
2022/12/30 09:16:44;;;;;;;9.13;4.93;;;;;;;5.94;67.04;101852.81;10415391;28;20484;-77
2022/12/30 09:21:45;;;;;;;8.52;5.13;;;;;;;6.04;66.78;101841.66;10416040;28;20120;-77
2022/12/30 09:26:46;;;;;;;9.00;5.00;;;;;;;5.74;65.58;101779.41;10415016;28;20033;-77
2022/12/30 09:31:47;;;;;;;8.82;5.03;;;;;;;5.71;65.07;101754.13;10415300;28;20397;-77
2022/12/30 09:36:48;;;;;;;9.75;4.88;;;;;;;6.31;65.66;101818.72;10414786;28;20501;-77
2022/12/30 09:47:17;;;;;;;9.32;5.05;;;;;;;6.63;64.70;101834.13;10414318;28;20041;-78
2022/12/30 09:52:25;;;;;;;13.02;4.85;;;;;;;6.30;61.75;101753.66;10415268;28;20084;-77
2022/12/30 09:57:30;;;;;;;11.50;4.57;;;;;;;6.47;63.38;101764.88;10414043;28;20065;-77
2022/12/30 10:02:53;;;;;;;10.40;4.88;;;;;;;6.90;60.69;101828.72;10413672;28;20527;-76
2022/12/30 10:08:12;;;;;;;7.57;4.30;;;;;;;6.89;59.36;101828.84;10414416;28;20033;-76
2022/12/30 10:13:36;;;;;;;9.23;4.50;;;;;;;6.65;60.91;101787.34;10414437;28;20786;-77
2022/12/30 10:19:06;;;;;;;;;;;;;;;7.09;63.67;101836.22;10413562;28;20417;-78
2022/12/30 10:24:19;;;;;;;10.75;5.03;;;;;;;6.97;61.82;101831.78;10408206;28;19916;-77
2022/12/30 10:29:29;;;;;;;9.00;4.88;;;;;;;6.98;60.53;101821.13;10413604;28;20087;-78
2022/12/30 10:34:31;;;;;;;10.77;4.55;;;;;;;7.04;61.83;101828.59;10413412;28;20044;-78
2022/12/30 10:39:38;;;;;;;7.40;4.10;;;;;;;7.01;61.71;101822.69;10413133;28;20037;-74
2022/12/30 10:45:03;;;;;;;6.85;4.03;;;;;;;7.08;59.94;101822.13;10413140;28;20175;-75
2022/12/30 10:50:15;;;;;;;14.15;4.93;;;;;;;7.05;59.39;101825.00;10412828;28;20148;-75
2022/12/30 10:55:24;;;;;;;6.63;4.00;;;;;;;7.06;58.68;101825.88;10412523;28;20049;-75
2022/12/30 11:00:25;;;;;;;9.68;4.47;;;;;;;6.98;59.39;101815.00;10412190;28;20072;-76
2022/12/30 11:05:39;;;;;;;9.63;3.85;;;;;;;7.04;56.41;101827.75;10416797;28;20045;-75
2022/12/30 11:10:40;;;;;;;8.83;4.33;;;;;;;6.53;60.02;101743.31;10420404;28;20045;-75
2022/12/30 11:15:53;;;;;;;6.82;3.58;;;;;;;6.85;57.93;101817.66;10420755;28;20057;-75
2022/12/30 11:20:59;;;;;;;7.20;3.78;;;;;;;6.81;59.23;101832.84;10419369;28;20042;-74
2022/12/30 11:26:21;;;;;;;8.15;3.95;;;;;;;6.69;58.53;101807.31;10418260;28;20413;-75
2022/12/30 11:31:29;;;;;;;8.63;3.83;;;;;;;6.63;59.41;101813.00;10451873;28;20037;-76
2022/12/30 11:36:30;;;;;;;9.88;3.92;;;;;;;6.60;60.52;101829.06;10444301;28;20033;-76
2022/12/30 11:41:46;;;;;;;6.53;3.72;;;;;;;6.52;59.87;101818.19;10448495;28;20060;-76
2022/12/30 11:46:50;;;;;;;7.38;3.70;;;;;;;5.45;61.27;101670.66;10434993;28;20037;-76
2022/12/30 11:51:52;;;;;;;12.98;3.40;;;;;;;6.10;62.17;101807.81;10451542;28;20061;-75
2022/12/30 11:56:55;;;;;;;5.72;3.63;;;;;;;6.10;62.11;101836.84;10419580;28;20425;-76
2022/12/30 12:01:59;;;;;;;7.72;4.15;;;;;;;5.81;62.61;101770.16;10426320;28;20049;-76
2022/12/30 12:07:02;;;;;;;7.90;4.05;;;;;;;6.17;62.77;101837.28;10453253;28;20512;-76
2022/12/30 12:12:10;;;;;;;8.43;4.53;;;;;;;5.96;62.51;101809.69;10438644;28;20057;-75
2022/12/30 12:17:48;;;;;;;5.88;3.55;;;;;;;6.08;62.71;101849.28;10437105;28;20050;-77
2022/12/30 12:23:13;;;;;;;14.75;8.68;;;;;;;5.96;62.69;101854.53;10450760;28;20037;-76
2022/12/30 12:28:14;;;;;;;9.38;3.65;;;;;;;5.76;63.78;101843.44;10418056;28;20509;-76
2022/12/30 12:33:36;;;;;;;6.93;3.65;;;;;;;5.58;63.21;101832.31;10418008;28;20053;-76
2022/12/30 12:39:01;;;;;;;13.07;4.05;;;;;;;5.66;64.45;101866.94;10416974;28;20048;-76
2022/12/30 12:44:46;;;;;;;12.43;3.28;;;;;;;5.60;64.31;101872.59;10459126;28;20123;-81
2022/12/30 12:50:00;;;;;;;11.43;3.55;;;;;;;5.39;65.21;101859.00;10456057;28;20535;-75
2022/12/30 12:55:19;;;;;;;7.32;2.78;;;;;;;5.39;64.80;101877.47;10457664;28;20045;-76
2022/12/30 13:00:22;;;;;;;5.57;2.63;;;;;;;5.24;65.33;101881.06;10457851;28;20037;-77
2022/12/30 13:05:54;;;;;;;4.93;2.57;;;;;;;5.10;65.45;101868.72;10413274;28;20038;-77
2022/12/30 13:11:16;;;;;;;7.05;3.40;;;;;;;4.67;66.38;101815.25;10374468;28;20108;-76
2022/12/30 13:16:21;;;;;;;7.45;3.65;;;;;;;4.62;67.33;101847.09;10412445;28;20037;-76
2022/12/30 13:21:25;;;;;;;5.15;2.85;;;;;;;4.38;67.07;101831.00;10415127;28;20037;-77
2022/12/30 13:26:28;;;;;;;7.65;2.95;;;;;;;4.59;67.91;101881.50;10412309;28;20119;-82
2022/12/30 13:31:41;;;;;;;12.60;3.70;;;;;;;3.85;67.83;101816.56;10399783;28;20049;-77
2022/12/30 13:37:09;;;;;;;9.43;3.88;;;;;;;4.14;68.63;101906.09;10415375;28;20110;-79
2022/12/30 13:42:16;;;;;;;16.60;4.53;;;;;;;3.91;69.14;101908.22;10389167;28;20046;-78
2022/12/30 13:47:39;;;;;;;15.38;4.70;;;;;;;3.76;70.09;101906.47;10394538;28;20041;-79
2022/12/30 13:52:56;;;;;;;23.65;5.35;;;;;;;3.47;70.24;101905.44;10398882;28;20103;-78
2022/12/30 13:58:03;;;;;;;17.95;4.45;;;;;;;3.32;70.73;101917.63;10397744;28;20079;-78
2022/12/30 14:03:22;;;;;;;11.15;4.47;;;;;;;3.14;71.97;101909.81;10406421;28;20029;-78
2022/12/30 14:08:26;;;;;;;11.68;5.05;;;;;;;2.78;71.91;101917.81;10409322;28;20041;-78
2022/12/30 14:13:26;;;;;;;14.25;5.55;;;;;;;2.51;72.49;101923.56;10388602;28;20045;-78
2022/12/30 14:18:47;;;;;;;16.23;6.13;;;;;;;2.22;74.44;101895.34;10409620;28;20041;-78
2022/12/30 14:23:54;;;;;;;14.38;6.20;;;;;;;2.02;73.91;101912.03;10396522;28;20034;-79
2022/12/30 14:29:04;;;;;;;14.38;5.88;;;;;;;1.71;75.64;101897.78;10399438;28;20042;-78
2022/12/30 14:34:18;;;;;;;11.55;5.38;;;;;;;1.32;75.33;101866.47;10404705;28;20132;-79
2022/12/30 14:39:20;;;;;;;18.37;6.57;;;;;;;1.58;76.23;101935.94;10401241;28;20093;-78
2022/12/30 14:44:26;;;;;;;12.50;6.05;;;;;;;0.95;76.82;101859.41;10412297;28;20513;-78
2022/12/30 14:49:56;;;;;;;10.65;5.05;;;;;;;1.27;78.25;101932.09;10400731;28;20049;-78
2022/12/30 14:54:56;;;;;;;17.92;5.68;;;;;;;1.10;76.98;101948.56;10396481;28;20068;-79
2022/12/30 15:00:10;;;;;;;15.90;5.35;;;;;;;0.99;78.76;101940.34;10413980;28;20474;-79
2022/12/30 15:05:21;;;;;;;13.30;5.37;;;;;;;-0.16;78.28;101788.38;10414841;28;20425;-79
2022/12/30 15:10:28;;;;;;;8.00;4.45;;;;;;;0.55;79.16;101935.25;10446471;28;20045;-78
2022/12/30 15:15:31;;;;;;;17.73;5.78;;;;;;;0.54;79.10;101949.25;10453162;28;20049;-78
2022/12/30 15:20:32;;;;;;;13.10;5.25;;;;;;;0.40;78.55;101947.19;10454377;28;20500;-80
2022/12/30 15:25:33;;;;;;;13.65;5.80;;;;;;;-0.12;79.31;101886.59;10432482;28;20045;-79
2022/12/30 15:30:34;;;;;;;12.70;5.93;;;;;;;0.01;79.13;101920.06;10425275;28;20133;-79
2022/12/30 15:35:39;;;;;;;11.98;5.65;;;;;;;0.07;80.50;101938.97;10411722;28;20131;-80
2022/12/30 15:40:43;;;;;;;10.43;5.53;;;;;;;-0.04;80.62;101931.53;10411633;28;20038;-78
2022/12/30 15:45:57;;;;;;;15.32;6.38;;;;;;;0.07;83.67;101952.03;10370605;28;20128;-80
2022/12/30 15:51:04;;;;;;;11.63;5.05;;;;;;;-0.03;82.48;101948.06;10374665;28;20084;-80
2022/12/30 15:56:11;;;;;;;13.93;5.72;;;;;;;-0.15;82.95;101951.16;10386913;28;20037;-80
2022/12/30 16:01:28;;;;;;;13.48;5.55;;;;;;;-0.35;82.55;101924.06;10417226;28;20045;-80
2022/12/30 16:06:29;;;;;;;21.23;5.80;;;;;;;-0.34;82.00;101944.03;10440466;28;20076;-79
2022/12/30 16:11:33;;;;;;;9.35;4.95;;;;;;;-0.49;82.31;101919.34;10459246;28;20036;-80
2022/12/30 16:16:34;;;;;;;10.90;5.10;;;;;;;-0.53;81.32;101920.41;10459301;28;20037;-78
2022/12/30 16:21:37;;;;;;;16.67;6.45;;;;;;;-0.44;81.71;101936.63;10459152;28;20049;-79
2022/12/30 16:26:38;;;;;;;10.32;6.43;;;;;;;-0.48;81.65;101923.69;10413834;28;20049;-80
2022/12/30 16:31:39;;;;;;;13.07;5.93;;;;;;;-0.88;82.27;101889.53;10389424;28;20560;-80
2022/12/30 16:36:40;;;;;;;10.18;5.05;;;;;;;-1.18;82.48;101859.31;10392926;28;20044;-81
2022/12/30 16:41:41;;;;;;;10.25;5.28;;;;;;;-0.88;82.61;101921.69;10402744;28;20395;-82
2022/12/30 16:46:42;;;;;;;9.60;5.18;;;;;;;-0.95;82.71;101921.06;10398910;28;20041;-80
2022/12/30 16:51:48;;;;;;;12.50;5.18;;;;;;;-1.19;82.86;101895.88;10423831;28;20144;-81
2022/12/30 16:56:50;;;;;;;10.43;4.93;;;;;;;-1.19;83.43;101912.38;10444528;28;20044;-80
2022/12/30 17:01:55;;;;;;;14.85;6.10;;;;;;;-1.22;83.79;101909.03;10431503;28;20412;-80
2022/12/30 17:06:56;;;;;;;15.85;5.47;;;;;;;-1.30;83.79;101906.66;10457255;28;20565;-80
2022/12/30 17:11:57;;;;;;;16.15;6.22;;;;;;;-1.42;83.50;101913.16;10456908;28;20041;-79
2022/12/30 17:16:58;;;;;;;11.98;5.93;;;;;;;-1.94;84.42;101817.69;10443472;28;20045;-80
2022/12/30 17:22:00;;;;;;;13.43;5.60;;;;;;;-1.46;83.88;101908.13;10415342;28;20124;-80
2022/12/30 17:27:00;;;;;;;13.18;6.43;;;;;;;-1.49;83.52;101901.25;10415669;28;20072;-79
2022/12/30 17:32:01;;;;;;;17.38;6.80;;;;;;;-2.34;84.09;101748.72;10416682;28;20509;-79
2022/12/30 17:37:02;;;;;;;24.73;7.10;;;;;;;-1.58;84.98;101852.06;10420094;28;20045;-80
2022/12/30 17:42:03;;;;;;;16.95;8.38;;;;;;;-1.40;85.08;101881.84;10429650;28;20152;-81
2022/12/30 17:47:04;;;;;;;17.00;8.90;;;;;;;-2.26;84.18;101738.06;10409613;28;20049;-81
2022/12/30 17:52:05;;;;;;;17.90;8.63;;;;;;;-1.50;84.64;101870.84;10399033;28;20559;-81
2022/12/30 17:57:06;;;;;;;20.13;8.43;;;;;;;-1.40;84.59;101872.25;10389700;28;20518;-80
2022/12/30 18:02:10;;;;;;;29.40;10.18;;;;;;;-1.81;85.78;101797.28;10407008;28;20061;-80
2022/12/30 18:07:11;;;;;;;17.65;7.93;;;;;;;-1.56;84.82;101859.81;10391048;28;20038;-80
2022/12/30 18:12:13;;;;;;;26.52;10.38;;;;;;;-1.47;84.97;101873.34;10389672;28;20406;-80
2022/12/30 18:17:14;;;;;;;19.30;7.57;;;;;;;-1.65;85.35;101856.59;10405936;28;20049;-80
2022/12/30 18:22:15;;;;;;;22.60;9.50;;;;;;;-1.65;85.05;101876.59;10409562;28;20627;-80
2022/12/30 18:27:16;;;;;;;20.58;9.57;;;;;;;-1.93;85.53;101835.00;10409988;28;20068;-80
2022/12/30 18:32:17;;;;;;;29.30;11.00;;;;;;;-2.12;86.27;101803.53;10409527;28;20044;-80
2022/12/30 18:37:18;;;;;;;22.08;9.50;;;;;;;-2.07;85.81;101819.84;10410587;28;20096;-80
2022/12/30 18:42:19;;;;;;;25.55;9.88;;;;;;;-2.01;86.42;101822.22;10410973;28;20083;-78
2022/12/30 18:47:19;;;;;;;18.05;8.85;;;;;;;-1.97;86.26;101838.63;10412332;28;20049;-78
2022/12/30 18:52:21;;;;;;;18.27;9.52;;;;;;;-2.14;85.52;101805.31;10411303;28;20065;-78
2022/12/30 18:57:22;;;;;;;19.50;9.98;;;;;;;-2.42;85.81;101777.59;10415648;28;20531;-79
2022/12/30 19:02:22;;;;;;;26.40;10.05;;;;;;;-2.33;85.71;101789.47;10414411;28;20175;-79
2022/12/30 19:07:23;;;;;;;20.25;9.25;;;;;;;-1.98;85.23;101853.38;10414844;28;20108;-81
2022/12/30 19:12:24;;;;;;;21.35;7.70;;;;;;;-2.08;85.32;101857.19;10410379;28;20128;-78
2022/12/30 19:17:25;;;;;;;25.95;9.73;;;;;;;-2.64;86.51;101755.75;10408768;28;20091;-81
2022/12/30 19:22:25;;;;;;;27.60;8.10;;;;;;;-2.25;86.70;101857.72;10410499;28;20086;-80
2022/12/30 19:27:26;;;;;;;21.05;7.70;;;;;;;-2.48;86.83;101822.03;10410934;28;20136;-79
2022/12/30 19:32:27;;;;;;;16.98;7.63;;;;;;;-2.24;86.64;101859.44;10426610;28;20041;-79
2022/12/30 19:37:28;;;;;;;25.33;8.65;;;;;;;-2.24;86.91;101862.06;10455941;28;20049;-79
2022/12/30 19:42:29;;;;;;;21.25;9.25;;;;;;;-2.92;86.53;101733.22;10423418;28;20045;-79
2022/12/30 19:47:33;;;;;;;19.25;9.02;;;;;;;-2.82;86.22;101758.03;10456233;28;20480;-82
2022/12/30 19:52:35;;;;;;;20.23;9.63;;;;;;;-2.33;86.58;101844.13;10446349;28;20064;-82
2022/12/30 19:57:36;;;;;;;24.95;9.55;;;;;;;-2.44;86.44;101844.44;10424347;28;20128;-81
2022/12/30 20:02:36;;;;;;;20.60;9.32;;;;;;;-2.91;86.48;101760.06;10417883;28;20120;-82
2022/12/30 20:07:37;;;;;;;22.40;10.27;;;;;;;-2.59;87.04;101814.56;10416868;28;20095;-80
2022/12/30 20:12:38;;;;;;;17.52;8.82;;;;;;;-2.89;86.81;101764.34;10417024;28;20053;-81
2022/12/30 20:17:39;;;;;;;22.60;9.32;;;;;;;-2.62;86.51;101817.25;10418549;28;20440;-82
2022/12/30 20:22:40;;;;;;;17.63;8.32;;;;;;;-2.53;86.53;101832.56;10416938;28;20509;-81
2022/12/30 20:27:41;;;;;;;20.98;8.57;;;;;;;-2.72;86.38;101814.97;10416320;28;20041;-81
2022/12/30 20:32:42;;;;;;;19.73;8.20;;;;;;;-2.73;86.49;101800.28;10415953;28;20111;-81
2022/12/30 20:37:43;;;;;;;28.38;9.20;;;;;;;-2.83;87.12;101773.69;10415916;28;20033;-80
2022/12/30 20:42:44;;;;;;;20.58;9.30;;;;;;;-2.72;87.30;101791.56;10415822;28;20041;-80
2022/12/30 20:47:45;;;;;;;21.20;9.93;;;;;;;-2.70;87.68;101815.78;10415694;28;20037;-81
2022/12/30 20:52:46;;;;;;;22.42;10.70;;;;;;;-2.83;88.12;101805.75;10412713;28;20060;-80
2022/12/30 20:57:47;;;;;;;20.27;9.50;;;;;;;-3.28;88.41;101722.22;10419583;28;20111;-79
2022/12/30 21:02:48;;;;;;;20.92;9.45;;;;;;;-2.84;88.63;101805.78;10423583;28;20033;-78
2022/12/30 21:07:48;;;;;;;31.50;11.60;;;;;;;-3.13;88.67;101754.69;10413762;28;20045;-80
2022/12/30 21:12:49;;;;;;;16.73;9.45;;;;;;;-3.27;88.48;101732.53;10415015;28;20168;-79
2022/12/30 21:17:50;;;;;;;18.80;9.93;;;;;;;-3.81;88.32;101650.13;10412673;28;20053;-80
2022/12/30 21:22:51;;;;;;;18.38;9.88;;;;;;;-2.97;88.48;101787.09;10415794;28;20037;-79
2022/12/30 21:27:52;;;;;;;23.73;9.45;;;;;;;-2.90;89.19;101796.44;10415075;28;20034;-80
2022/12/30 21:32:53;;;;;;;30.17;8.40;;;;;;;-3.38;89.15;101719.03;10426698;28;20053;-80
2022/12/30 22:02:43;;;;;;;28.48;10.40;;;;;;;-3.23;88.33;101754.97;10455912;28;20033;-79
2022/12/30 22:04:57;;;;;;;16.85;7.90;;;;;;;-3.27;87.50;101750.72;10373662;28;20045;-80
2022/12/30 22:09:58;;;;;;;14.65;8.10;;;;;;;-3.76;87.77;101670.78;10373043;28;20034;-79
2022/12/30 22:14:59;;;;;;;15.48;8.43;;;;;;;-3.69;87.62;101683.53;10371927;28;20068;-79
2022/12/30 22:20:00;;;;;;;15.05;7.53;;;;;;;-3.11;88.44;101768.47;10373088;28;20068;-79
2022/12/30 22:25:01;;;;;;;15.20;8.48;;;;;;;-3.28;88.09;101736.03;10372786;28;20053;-79
2022/12/30 22:30:01;;;;;;;17.92;9.18;;;;;;;-3.93;87.81;101650.50;10372675;28;20045;-79
2022/12/30 22:35:03;;;;;;;17.67;9.43;;;;;;;-3.43;88.27;101746.88;10370879;28;20057;-79
2022/12/30 22:40:05;;;;;;;16.50;10.10;;;;;;;-3.34;88.39;101771.75;10370769;28;20065;-79
2022/12/30 22:45:07;;;;;;;14.60;7.88;;;;;;;-3.99;87.67;101694.78;10371294;28;20046;-79
2022/12/30 22:50:09;;;;;;;20.77;10.40;;;;;;;-3.52;88.17;101783.53;10372840;28;20132;-79
2022/12/30 22:55:10;;;;;;;27.67;11.35;;;;;;;-3.53;88.60;101750.63;10371436;28;20080;-79
2022/12/30 23:00:13;;;;;;;27.27;13.38;;;;;;;-3.45;88.28;101779.84;10373438;28;20472;-79
2022/12/30 23:05:14;;;;;;;21.67;10.50;;;;;;;-3.91;87.74;101717.06;10378754;28;20042;-79
2022/12/30 23:10:16;;;;;;;19.23;10.07;;;;;;;-3.62;88.08;101774.25;10380780;28;20054;-79
2022/12/30 23:20:36;;;;;;;23.70;9.68;;;;;;;-4.01;87.81;101700.03;10379334;28;20076;-79
2022/12/30 23:25:37;;;;;;;25.85;9.98;;;;;;;-4.23;88.32;101665.16;10379029;28;20088;-79
2022/12/30 23:30:38;;;;;;;23.65;9.77;;;;;;;-3.60;88.17;101780.28;10379444;28;20037;-79
2022/12/30 23:35:39;;;;;;;24.25;9.65;;;;;;;-3.58;88.38;101776.75;10379311;28;20100;-79
2022/12/30 23:40:39;;;;;;;24.58;9.90;;;;;;;-3.49;88.47;101788.63;10378910;28;20409;-79
2022/12/30 23:45:42;;;;;;;17.25;8.63;;;;;;;-3.77;89.13;101745.25;10378632;28;20437;-79
2022/12/30 23:50:42;;;;;;;24.10;9.63;;;;;;;-3.49;89.44;101788.63;10377779;28;20068;-79
2022/12/30 23:55:43;;;;;;;27.92;9.65;;;;;;;-3.88;89.52;101731.69;10377731;28;20133;-79
